Impacts TAF Board
For situational awareness. Not to be used for flight planning purposes.
IDs:

KBWI - Baltimore-Washington, MD, US

Issued at 1721 UTC 03 Jun 2020
Updated at 1736 UTC 03 Jun 2020
Potential Impact None Slight Moderate High
Time<<04/06Z 04/07Z 04/08Z 04/09Z 04/10Z 04/11Z 04/12Z 04/13Z 04/14Z 04/15Z 04/16Z 04/17Z 04/18Z>>
Type PRVL PRVL PRVL PRVL PRVL PRVL PRVL PRVL PRVL PRVL PRVL PRVL PRVL
VIS >6 >6 >6 >6 >6 >6 >6 >6 >6 >6 >6 >6 >6
CIG 200 200 200 200 200 200 200 200 200 150 150 150 150
Cover BKN BKN BKN BKN BKN BKN BKN BKN BKN BKN BKN BKN BKN
FltCat VFR VFR VFR VFR VFR VFR VFR VFR VFR VFR VFR VFR VFR
WX -- -- -- -- -- -- -- -- -- -- -- -- --
WDir 280 280 280 280 280 280 280 280 280 250 250 250 250
WSpd 10 10 10 10 10 10 10 10 10 4 4 4 4
WGst -- -- -- -- -- -- -- -- -- -- -- -- --
Raw TAF
KBWI 031721Z 0318/0424 26013G20KT P6SM SCT200
  FM032300 28010G17KT P6SM BKN200
  FM040000 28010KT P6SM BKN200
  FM041500 25004KT P6SM BKN150


METAR Board
Radar Display
Forecast Discussion
For situational awareness. Not to be used for flight planning purposes.